Time;durP1;ratioP1;P1;durP2;ratioP2;P2;SDS_P1;SDS_P2;PMS_P1;PMS_P2;Temp;Humidity;BMP_temperature;BMP_pressure;BME280_temperature;BME280_humidity;BME280_pressure;Samples;Min_cycle;Max_cycle;Signal;HPM_P1;HPM_P2
2023/06/06 00:03:21;;;;;;;3.03;2.13;;;17.80;76.90;;;;;;10483548;28;20496;-67
2023/06/06 00:08:23;;;;;;;5.35;2.38;;;17.70;76.90;;;;;;10485609;28;20476;-68
2023/06/06 00:13:27;;;;;;;3.72;1.95;;;17.80;77.00;;;;;;10471148;28;20599;-68
2023/06/06 00:18:27;;;;;;;4.35;2.28;;;17.70;77.00;;;;;;10481079;28;20201;-68
2023/06/06 00:23:28;;;;;;;3.22;2.20;;;17.70;77.00;;;;;;10481191;28;20480;-69
2023/06/06 00:28:29;;;;;;;3.63;2.40;;;17.70;77.00;;;;;;10490036;28;20091;-68
2023/06/06 00:33:29;;;;;;;3.20;2.05;;;17.70;77.00;;;;;;10482753;28;20013;-68
2023/06/06 00:38:31;;;;;;;7.05;3.45;;;17.60;77.00;;;;;;10487232;28;20032;-68
2023/06/06 00:43:31;;;;;;;3.08;2.20;;;17.60;77.00;;;;;;10477692;28;20215;-68
2023/06/06 00:48:32;;;;;;;2.97;2.10;;;17.50;77.00;;;;;;10490343;28;20605;-68
2023/06/06 00:53:33;;;;;;;3.38;2.47;;;17.50;77.00;;;;;;10481995;28;20404;-67
2023/06/06 00:58:35;;;;;;;4.63;2.30;;;17.40;77.00;;;;;;10469258;28;20028;-67
2023/06/06 01:03:36;;;;;;;3.80;2.63;;;17.40;77.00;;;;;;10469148;28;20400;-68
2023/06/06 01:08:37;;;;;;;4.43;2.35;;;17.50;77.10;;;;;;10487155;28;20032;-68
2023/06/06 01:13:56;;;;;;;3.03;2.30;;;17.30;77.00;;;;;;10482706;28;20017;-68
2023/06/06 01:18:57;;;;;;;4.22;2.22;;;17.30;77.10;;;;;;10482980;28;20024;-68
2023/06/06 01:23:58;;;;;;;4.43;2.58;;;17.30;77.00;;;;;;10475308;28;20017;-68
2023/06/06 01:28:59;;;;;;;4.38;2.50;;;17.30;77.10;;;;;;10475200;28;20021;-68
2023/06/06 01:35:01;;;;;;;4.00;2.60;;;17.20;77.00;;;;;;10481900;28;20013;-67
2023/06/06 01:40:07;;;;;;;6.50;2.47;;;17.20;77.10;;;;;;10378394;28;20025;-68
2023/06/06 01:45:09;;;;;;;3.50;2.35;;;17.10;77.00;;;;;;10454393;28;20037;-68
2023/06/06 01:50:11;;;;;;;4.43;2.13;;;17.20;77.10;;;;;;10482612;28;20216;-67
2023/06/06 01:55:11;;;;;;;3.75;1.80;;;17.10;77.00;;;;;;10478548;28;20013;-68
2023/06/06 02:00:12;;;;;;;7.13;2.58;;;17.10;77.00;;;;;;10468946;28;20021;-68
2023/06/06 02:05:14;;;;;;;3.75;2.20;;;17.00;77.00;;;;;;10480033;28;20073;-67
2023/06/06 02:10:15;;;;;;;4.97;2.50;;;17.00;77.00;;;;;;10484994;28;20075;-67
2023/06/06 02:15:17;;;;;;;3.95;2.25;;;17.00;77.10;;;;;;10470002;28;20423;-68
2023/06/06 02:20:17;;;;;;;4.32;2.28;;;16.90;77.00;;;;;;10488622;28;20024;-68
2023/06/06 02:25:19;;;;;;;2.95;2.10;;;16.90;77.10;;;;;;10477285;28;20029;-68
2023/06/06 02:30:20;;;;;;;4.57;2.40;;;17.00;77.10;;;;;;10484658;28;20040;-68
2023/06/06 02:35:21;;;;;;;3.47;2.40;;;16.80;77.00;;;;;;10481262;28;20020;-67
2023/06/06 02:40:21;;;;;;;3.22;2.40;;;16.60;77.00;;;;;;10486032;28;20479;-68
2023/06/06 02:45:22;;;;;;;5.40;2.30;;;16.80;77.10;;;;;;10486309;28;20055;-68
2023/06/06 02:50:24;;;;;;;4.13;2.42;;;16.80;77.10;;;;;;10485497;28;20027;-68
2023/06/06 02:55:25;;;;;;;3.97;2.28;;;16.70;77.00;;;;;;10487122;28;20016;-68
2023/06/06 03:00:26;;;;;;;3.88;2.28;;;16.70;77.10;;;;;;10481915;28;20029;-68
2023/06/06 03:05:29;;;;;;;4.35;2.40;;;16.70;77.10;;;;;;10486866;28;20059;-70
2023/06/06 03:10:30;;;;;;;4.43;2.90;;;16.60;77.10;;;;;;10484852;28;20023;-69
2023/06/06 03:15:30;;;;;;;3.47;2.08;;;16.60;77.20;;;;;;10472392;28;20502;-69
2023/06/06 03:20:32;;;;;;;4.57;2.08;;;16.60;77.20;;;;;;10488517;28;20480;-70
2023/06/06 03:25:33;;;;;;;3.05;2.08;;;16.60;77.20;;;;;;10475658;28;20450;-70
2023/06/06 03:30:34;;;;;;;4.00;2.10;;;16.50;77.20;;;;;;10466855;28;20503;-70
2023/06/06 03:35:35;;;;;;;3.50;2.30;;;16.50;77.20;;;;;;10481230;28;20024;-70
2023/06/06 03:40:36;;;;;;;4.13;2.47;;;16.50;77.30;;;;;;10466178;28;20531;-70
2023/06/06 03:45:37;;;;;;;4.60;2.60;;;16.50;77.30;;;;;;10482803;28;20096;-70
2023/06/06 03:50:38;;;;;;;3.95;2.65;;;16.50;77.30;;;;;;10477997;28;20021;-69
2023/06/06 03:55:39;;;;;;;3.35;2.15;;;16.40;77.30;;;;;;10473085;28;20320;-69
2023/06/06 04:00:39;;;;;;;4.63;2.60;;;16.40;77.30;;;;;;10491637;28;20021;-69
2023/06/06 04:05:40;;;;;;;5.38;2.55;;;16.40;77.30;;;;;;10480143;28;20222;-69
2023/06/06 04:10:40;;;;;;;3.75;2.13;;;16.40;77.30;;;;;;10483586;28;20048;-70
2023/06/06 04:15:41;;;;;;;4.68;2.10;;;16.30;77.30;;;;;;10476661;28;20025;-70
2023/06/06 04:20:45;;;;;;;3.38;2.00;;;16.30;77.40;;;;;;10490019;28;20028;-70
2023/06/06 04:25:46;;;;;;;3.25;2.15;;;16.30;77.30;;;;;;10485035;28;20484;-69
2023/06/06 04:30:51;;;;;;;3.28;2.17;;;16.30;77.40;;;;;;10482167;28;20017;-69
2023/06/06 04:35:52;;;;;;;3.13;2.08;;;16.30;77.40;;;;;;10480601;28;20036;-70
2023/06/06 04:40:53;;;;;;;4.13;2.10;;;16.30;77.40;;;;;;10464157;28;20470;-70
2023/06/06 04:45:57;;;;;;;3.08;2.30;;;16.20;77.40;;;;;;10479378;28;20024;-70
2023/06/06 04:50:58;;;;;;;3.83;2.28;;;16.30;77.50;;;;;;10477357;28;20377;-70
2023/06/06 04:56:03;;;;;;;4.20;2.13;;;16.30;77.60;;;;;;10479442;28;20012;-70
2023/06/06 05:01:04;;;;;;;4.90;2.35;;;16.20;77.50;;;;;;10477973;28;20028;-69
2023/06/06 05:06:05;;;;;;;5.38;2.00;;;16.20;77.60;;;;;;10468882;28;20016;-69
2023/06/06 05:11:06;;;;;;;4.10;2.17;;;16.20;77.60;;;;;;10478067;28;20484;-70
2023/06/06 05:16:10;;;;;;;3.50;2.17;;;16.20;77.60;;;;;;10478750;28;20362;-70
2023/06/06 05:21:10;;;;;;;3.00;2.08;;;16.20;77.80;;;;;;10472761;28;20040;-70
2023/06/06 05:26:11;;;;;;;3.90;2.40;;;16.20;77.70;;;;;;10471798;28;20410;-70
2023/06/06 05:31:16;;;;;;;3.33;1.98;;;16.20;77.90;;;;;;10480184;28;20029;-69
2023/06/06 05:36:17;;;;;;;2.60;1.90;;;16.20;78.00;;;;;;10478135;28;20024;-70
2023/06/06 05:41:20;;;;;;;2.67;1.80;;;16.20;78.00;;;;;;10474610;28;20025;-69
2023/06/06 05:46:21;;;;;;;4.32;1.90;;;16.20;78.20;;;;;;10461685;28;20246;-70
2023/06/06 05:51:21;;;;;;;4.10;1.70;;;16.20;78.30;;;;;;10475791;28;20055;-70
2023/06/06 05:56:22;;;;;;;4.20;1.92;;;16.20;78.30;;;;;;10487003;28;20039;-70
2023/06/06 06:01:24;;;;;;;3.92;2.08;;;16.20;78.40;;;;;;10483525;28;20024;-70
2023/06/06 06:06:25;;;;;;;2.97;1.67;;;16.20;78.40;;;;;;10470024;28;20040;-69
2023/06/06 06:11:26;;;;;;;4.10;1.98;;;16.20;79.10;;;;;;10478731;28;20025;-70
2023/06/06 06:16:26;;;;;;;2.55;1.67;;;16.20;78.60;;;;;;10473970;28;20100;-69
2023/06/06 06:21:27;;;;;;;3.78;1.95;;;16.20;79.50;;;;;;10480572;28;20056;-70
2023/06/06 06:26:27;;;;;;;4.63;2.00;;;16.20;78.90;;;;;;10487843;28;20171;-70
2023/06/06 06:31:28;;;;;;;5.38;2.13;;;16.00;79.50;;;;;;10481243;28;20035;-69
2023/06/06 06:36:28;;;;;;;6.65;2.47;;;16.00;79.60;;;;;;10477440;28;20103;-67
2023/06/06 06:41:29;;;;;;;4.30;2.38;;;16.10;79.70;;;;;;10480547;28;20025;-69
2023/06/06 06:46:30;;;;;;;5.07;1.90;;;16.10;79.60;;;;;;10474377;28;20082;-69
2023/06/06 06:51:32;;;;;;;4.82;2.20;;;16.10;79.60;;;;;;10482919;28;20046;-69
2023/06/06 06:56:33;;;;;;;3.03;1.95;;;16.30;79.60;;;;;;10470766;28;20020;-69
2023/06/06 07:01:34;;;;;;;3.28;2.00;;;16.20;79.50;;;;;;10478577;28;20025;-69
2023/06/06 07:06:36;;;;;;;3.78;2.00;;;16.30;79.60;;;;;;10472528;28;20473;-69
2023/06/06 07:11:37;;;;;;;3.65;1.65;;;16.30;79.50;;;;;;10488167;28;20405;-69
2023/06/06 07:16:37;;;;;;;9.18;2.67;;;16.30;79.60;;;;;;10480309;28;20024;-69
2023/06/06 07:21:38;;;;;;;2.83;1.80;;;16.40;79.70;;;;;;10471911;28;20115;-69
2023/06/06 07:26:38;;;;;;;4.35;2.40;;;16.40;79.70;;;;;;10471657;28;20389;-69
2023/06/06 07:31:39;;;;;;;3.88;2.25;;;16.40;79.70;;;;;;10476371;28;20412;-69
2023/06/06 07:36:40;;;;;;;3.88;1.85;;;16.50;79.70;;;;;;10482803;28;20023;-69
2023/06/06 07:41:41;;;;;;;4.25;1.85;;;16.40;79.70;;;;;;10474866;28;20612;-69
2023/06/06 07:46:41;;;;;;;3.08;2.17;;;16.50;79.80;;;;;;10471061;28;20250;-69
2023/06/06 07:51:42;;;;;;;2.55;1.85;;;16.50;79.80;;;;;;10476225;28;20039;-69
2023/06/06 07:56:44;;;;;;;4.40;1.90;;;16.60;79.90;;;;;;10478656;28;20028;-69
2023/06/06 08:01:45;;;;;;;4.70;2.30;;;16.60;79.90;;;;;;10479963;28;20501;-69
2023/06/06 08:06:45;;;;;;;4.07;1.90;;;16.60;80.00;;;;;;10475491;28;20050;-69
2023/06/06 08:11:46;;;;;;;3.95;2.10;;;16.60;79.90;;;;;;10482765;28;20427;-69
2023/06/06 08:16:46;;;;;;;4.93;2.30;;;16.70;79.90;;;;;;10484404;28;20025;-69
2023/06/06 08:21:47;;;;;;;3.17;1.60;;;16.70;79.90;;;;;;10468413;28;20029;-69
2023/06/06 08:26:48;;;;;;;3.40;1.90;;;16.80;79.90;;;;;;10480456;28;20027;-69
2023/06/06 08:31:49;;;;;;;4.93;2.38;;;16.80;79.90;;;;;;10478857;28;20032;-69
2023/06/06 08:36:50;;;;;;;3.53;2.10;;;16.80;79.80;;;;;;10476020;28;20021;-70
2023/06/06 08:41:52;;;;;;;3.25;1.85;;;16.90;80.00;;;;;;10478070;28;20085;-69
2023/06/06 08:46:56;;;;;;;4.18;2.38;;;16.90;80.00;;;;;;10479843;28;20032;-69
2023/06/06 08:51:58;;;;;;;4.82;2.20;;;17.00;80.00;;;;;;10480064;28;20058;-69
2023/06/06 08:57:07;;;;;;;3.75;2.20;;;17.00;80.00;;;;;;10476432;28;20586;-69
2023/06/06 09:02:08;;;;;;;5.35;2.40;;;17.10;80.10;;;;;;10479310;28;20024;-69
2023/06/06 09:07:12;;;;;;;2.80;2.17;;;17.10;80.00;;;;;;10477049;28;20422;-68
2023/06/06 09:12:13;;;;;;;3.67;2.47;;;17.20;80.20;;;;;;10472578;28;20083;-69
2023/06/06 09:17:17;;;;;;;4.35;2.28;;;17.20;80.20;;;;;;10470033;28;20130;-69
2023/06/06 09:22:18;;;;;;;3.75;1.98;;;17.20;80.30;;;;;;10476261;28;20366;-69
2023/06/06 09:27:29;;;;;;;5.78;2.38;;;17.30;80.20;;;;;;10478197;28;20035;-69
2023/06/06 09:32:38;;;;;;;4.47;2.17;;;17.30;80.60;;;;;;10489657;28;20020;-69
2023/06/06 09:37:39;;;;;;;6.10;2.72;;;17.40;80.30;;;;;;10481452;28;20541;-69
2023/06/06 09:42:45;;;;;;;5.15;2.30;;;17.40;80.20;;;;;;10482581;28;20533;-70
2023/06/06 09:47:47;;;;;;;3.05;2.00;;;17.50;80.50;;;;;;10494727;28;20023;-69
2023/06/06 09:52:51;;;;;;;4.15;2.20;;;17.60;80.30;;;;;;10479932;28;20056;-69
2023/06/06 09:57:57;;;;;;;4.85;2.00;;;17.60;80.40;;;;;;10485318;28;20035;-69
2023/06/06 10:02:59;;;;;;;4.65;2.55;;;17.70;80.40;;;;;;10481039;28;20028;-70
2023/06/06 10:08:01;;;;;;;4.80;2.47;;;17.70;80.20;;;;;;10484845;28;20451;-69
2023/06/06 10:13:02;;;;;;;3.95;2.17;;;17.80;80.20;;;;;;10478755;28;20037;-69
2023/06/06 10:18:04;;;;;;;3.63;2.10;;;17.90;80.20;;;;;;10476569;28;20020;-69
2023/06/06 10:23:04;;;;;;;6.10;2.72;;;17.90;80.30;;;;;;10492386;28;20054;-69
2023/06/06 10:28:33;;;;;;;3.78;2.30;;;18.00;80.30;;;;;;10488924;28;20503;-69
2023/06/06 10:33:54;;;;;;;5.43;2.80;;;18.00;80.80;;;;;;10484019;28;20024;-69
2023/06/06 10:39:23;;;;;;;5.20;2.40;;;18.10;80.90;;;;;;10484302;28;20047;-70
2023/06/06 10:44:36;;;;;;;4.03;2.33;;;18.10;80.80;;;;;;10481363;28;20145;-70
2023/06/06 10:49:36;;;;;;;4.15;2.60;;;18.20;80.70;;;;;;10471093;28;20487;-70
2023/06/06 10:54:37;;;;;;;5.18;2.30;;;18.20;80.50;;;;;;10482369;28;20016;-70
2023/06/06 10:59:38;;;;;;;4.60;2.70;;;18.30;80.60;;;;;;10487529;28;20027;-69
2023/06/06 11:04:39;;;;;;;3.97;2.50;;;18.30;80.70;;;;;;10483439;28;20138;-70
2023/06/06 11:09:42;;;;;;;4.68;2.30;;;18.40;80.60;;;;;;10486219;28;20523;-69
2023/06/06 11:14:58;;;;;;;6.07;2.60;;;18.50;80.60;;;;;;10476166;28;20016;-70
2023/06/06 11:20:01;;;;;;;5.15;2.28;;;18.50;81.00;;;;;;10475220;28;20198;-70
2023/06/06 11:25:01;;;;;;;4.68;2.50;;;18.60;81.10;;;;;;10475920;28;20028;-69
2023/06/06 11:30:04;;;;;;;5.63;2.55;;;18.70;80.50;;;;;;10489659;28;20042;-69
2023/06/06 11:35:07;;;;;;;5.55;2.42;;;18.80;80.60;;;;;;10479194;28;20374;-69
2023/06/06 11:40:08;;;;;;;3.25;2.22;;;18.80;80.60;;;;;;10479446;28;20449;-69
2023/06/06 11:45:14;;;;;;;8.27;2.70;;;18.90;80.60;;;;;;10475960;28;20425;-69
2023/06/06 11:50:26;;;;;;;3.97;2.47;;;19.00;80.70;;;;;;10477958;28;20422;-68
2023/06/06 11:55:36;;;;;;;5.47;2.40;;;19.00;80.80;;;;;;10480130;28;20574;-69
2023/06/06 12:00:37;;;;;;;3.88;2.42;;;19.10;80.70;;;;;;10481073;28;20111;-69
2023/06/06 12:05:38;;;;;;;5.68;2.47;;;19.20;80.60;;;;;;10482350;28;20035;-69
2023/06/06 12:10:38;;;;;;;3.53;2.58;;;19.30;80.60;;;;;;10481682;28;20115;-69
2023/06/06 12:15:48;;;;;;;4.50;2.78;;;19.30;80.60;;;;;;10483294;28;20029;-69
2023/06/06 12:20:49;;;;;;;4.85;2.50;;;19.40;80.60;;;;;;10476565;28;20013;-69
2023/06/06 12:25:57;;;;;;;4.28;2.25;;;19.40;80.40;;;;;;10489894;28;20476;-69
2023/06/06 12:30:57;;;;;;;4.57;2.67;;;19.50;80.50;;;;;;10479029;28;20056;-69
2023/06/06 12:36:14;;;;;;;4.80;2.70;;;19.60;80.40;;;;;;10481241;28;20103;-69
2023/06/06 12:41:15;;;;;;;6.70;2.63;;;19.70;80.60;;;;;;10477038;28;20025;-69
2023/06/06 12:46:15;;;;;;;3.70;2.45;;;19.70;80.30;;;;;;10475643;28;20033;-68
2023/06/06 12:51:16;;;;;;;4.03;2.55;;;19.80;80.40;;;;;;10476246;28;20342;-69
2023/06/06 12:56:17;;;;;;;6.57;2.88;;;19.80;80.40;;;;;;10481504;28;20017;-68
2023/06/06 13:01:18;;;;;;;5.03;2.65;;;19.90;80.50;;;;;;10485597;28;20438;-68
2023/06/06 13:06:20;;;;;;;3.42;2.55;;;20.00;80.50;;;;;;10488613;28;20051;-69
2023/06/06 13:11:20;;;;;;;4.30;2.80;;;20.00;80.40;;;;;;10494982;28;20075;-69
2023/06/06 13:16:21;;;;;;;7.45;3.05;;;20.10;80.40;;;;;;10486441;28;20031;-69
2023/06/06 13:21:22;;;;;;;3.97;2.63;;;20.20;80.30;;;;;;10491670;28;20507;-69
2023/06/06 13:26:22;;;;;;;6.28;2.33;;;20.30;80.40;;;;;;10495423;28;20060;-69
2023/06/06 13:31:23;;;;;;;4.72;2.80;;;20.40;80.20;;;;;;10485921;28;20311;-69
2023/06/06 13:36:24;;;;;;;4.18;2.70;;;20.50;80.20;;;;;;10492565;28;20020;-69
2023/06/06 13:41:25;;;;;;;5.88;3.00;;;20.60;80.10;;;;;;10481063;28;20059;-69
2023/06/06 13:46:26;;;;;;;5.03;2.58;;;20.70;79.80;;;;;;10489079;28;20016;-70
2023/06/06 13:51:27;;;;;;;11.05;3.20;;;20.90;79.80;;;;;;10482217;28;20036;-70
2023/06/06 13:56:27;;;;;;;8.77;2.92;;;20.90;79.60;;;;;;10486171;28;20016;-71
2023/06/06 14:01:29;;;;;;;5.03;2.65;;;20.90;79.60;;;;;;10481867;28;20042;-71
2023/06/06 14:06:29;;;;;;;5.28;2.92;;;21.00;79.50;;;;;;10473929;28;20036;-71
2023/06/06 14:11:30;;;;;;;4.10;3.20;;;21.10;79.50;;;;;;10478200;28;20029;-71
2023/06/06 14:16:31;;;;;;;5.05;3.13;;;21.20;79.30;;;;;;10488872;28;20017;-71
2023/06/06 14:26:35;;;;;;;6.22;3.10;;;21.40;79.20;;;;;;10474194;28;20106;-68
2023/06/06 14:31:36;;;;;;;5.60;2.92;;;21.50;79.10;;;;;;10484757;28;20082;-68
2023/06/06 14:36:36;;;;;;;6.30;3.13;;;21.60;79.10;;;;;;10485447;28;20032;-69
2023/06/06 14:41:37;;;;;;;8.27;3.05;;;21.70;79.00;;;;;;10494711;28;20027;-67
2023/06/06 14:46:37;;;;;;;8.45;3.08;;;21.80;78.80;;;;;;10490696;28;20329;-68
2023/06/06 14:51:38;;;;;;;5.93;3.38;;;21.90;78.80;;;;;;10484091;28;20025;-69
2023/06/06 14:56:39;;;;;;;6.72;3.17;;;22.00;78.70;;;;;;10485927;28;20013;-70
2023/06/06 15:01:40;;;;;;;4.82;3.05;;;22.10;78.80;;;;;;10491012;28;20029;-69
2023/06/06 15:06:40;;;;;;;6.03;3.70;;;22.10;78.70;;;;;;10481957;28;20029;-69
2023/06/06 15:11:41;;;;;;;6.75;2.88;;;22.20;79.30;;;;;;10486321;28;20068;-69
2023/06/06 15:16:42;;;;;;;4.85;2.90;;;22.30;78.60;;;;;;10483639;28;20029;-70
2023/06/06 15:21:43;;;;;;;4.30;2.63;;;22.40;78.60;;;;;;10485972;28;20025;-71
2023/06/06 15:26:43;;;;;;;5.00;3.00;;;22.40;78.60;;;;;;10485080;28;20016;-68
2023/06/06 15:31:44;;;;;;;6.55;3.15;;;22.50;78.60;;;;;;10487003;28;20035;-67
2023/06/06 15:36:45;;;;;;;6.35;3.22;;;22.60;78.50;;;;;;10484908;28;20673;-68
2023/06/06 15:41:46;;;;;;;10.68;3.67;;;22.70;78.40;;;;;;10473904;28;20104;-68
2023/06/06 15:46:46;;;;;;;5.82;2.95;;;22.70;78.00;;;;;;10482503;28;20020;-69
2023/06/06 15:51:48;;;;;;;5.40;3.50;;;22.80;77.60;;;;;;10480198;28;20147;-70
2023/06/06 15:56:48;;;;;;;7.93;3.28;;;22.80;77.60;;;;;;10472728;28;20031;-69
2023/06/06 16:01:54;;;;;;;8.45;3.08;;;22.70;77.70;;;;;;10476718;28;20032;-69
2023/06/06 16:06:55;;;;;;;7.45;3.05;;;22.60;78.00;;;;;;10468867;28;20017;-69
2023/06/06 16:11:55;;;;;;;5.93;3.42;;;22.60;78.40;;;;;;10473650;28;20531;-69
2023/06/06 16:16:56;;;;;;;5.13;3.13;;;22.50;78.60;;;;;;10466356;28;20029;-68
2023/06/06 16:21:57;;;;;;;8.50;3.17;;;22.40;78.80;;;;;;10467238;28;20385;-68
2023/06/06 16:26:57;;;;;;;7.05;3.15;;;22.40;79.00;;;;;;10471492;28;20191;-69
2023/06/06 16:31:58;;;;;;;6.53;3.08;;;22.30;79.20;;;;;;10474312;28;20051;-69
2023/06/06 16:36:58;;;;;;;8.13;3.35;;;22.30;79.40;;;;;;10480617;28;20317;-68
2023/06/06 16:41:59;;;;;;;3.47;2.70;;;22.20;79.50;;;;;;10470863;28;20432;-68
2023/06/06 16:47:00;;;;;;;6.60;3.47;;;22.10;79.70;;;;;;10480923;28;20103;-70
2023/06/06 16:52:01;;;;;;;4.95;3.10;;;22.10;79.70;;;;;;10475188;28;20078;-68
2023/06/06 16:57:01;;;;;;;6.45;2.92;;;22.00;79.90;;;;;;10474806;28;20028;-68
2023/06/06 17:02:02;;;;;;;5.32;3.03;;;21.90;80.10;;;;;;10468600;28;20041;-69
2023/06/06 17:07:03;;;;;;;6.15;3.70;;;21.90;80.20;;;;;;10472454;28;20024;-69
2023/06/06 17:12:05;;;;;;;3.85;3.03;;;21.80;80.20;;;;;;10471689;28;20090;-68
2023/06/06 17:17:06;;;;;;;5.50;3.00;;;21.80;80.30;;;;;;10471182;28;20407;-69
2023/06/06 17:22:09;;;;;;;5.88;3.03;;;21.80;80.40;;;;;;10472318;28;20048;-69
2023/06/06 17:27:10;;;;;;;6.07;3.50;;;21.70;80.40;;;;;;10467311;28;20484;-70
2023/06/06 17:32:10;;;;;;;9.07;3.83;;;21.70;80.50;;;;;;10471534;28;20491;-70
2023/06/06 17:37:12;;;;;;;5.43;3.13;;;21.70;80.50;;;;;;10473001;28;20396;-71
2023/06/06 17:42:14;;;;;;;6.43;3.22;;;21.60;80.40;;;;;;10477390;28;20032;-70
2023/06/06 17:47:16;;;;;;;7.65;2.92;;;21.60;80.50;;;;;;10470381;28;20427;-70
2023/06/06 17:52:17;;;;;;;8.75;3.33;;;21.50;80.40;;;;;;10470176;28;20399;-70
2023/06/06 17:57:17;;;;;;;7.18;3.10;;;21.50;80.50;;;;;;10479372;28;20025;-70
2023/06/06 18:02:18;;;;;;;5.85;2.92;;;21.40;80.40;;;;;;10482151;28;20020;-70
2023/06/06 18:07:18;;;;;;;6.00;2.90;;;21.40;80.40;;;;;;10482448;28;20036;-70
2023/06/06 18:12:20;;;;;;;5.45;3.00;;;21.40;80.40;;;;;;10482723;28;20290;-70
2023/06/06 18:17:21;;;;;;;7.15;2.65;;;21.30;80.60;;;;;;10470852;28;20271;-70
2023/06/06 18:22:22;;;;;;;6.35;3.05;;;21.30;80.60;;;;;;10480377;28;20420;-70
2023/06/06 18:27:22;;;;;;;7.40;2.90;;;21.20;80.60;;;;;;10478676;28;20033;-70
2023/06/06 18:32:23;;;;;;;5.43;2.83;;;21.20;80.60;;;;;;10479368;28;20166;-70
2023/06/06 18:37:23;;;;;;;5.18;3.22;;;21.20;80.70;;;;;;10477450;28;20484;-70
2023/06/06 18:42:24;;;;;;;6.05;2.67;;;21.10;80.60;;;;;;10478751;28;20032;-70
2023/06/06 18:47:26;;;;;;;5.40;3.20;;;21.00;80.70;;;;;;10475639;28;20020;-70
2023/06/06 18:52:27;;;;;;;5.28;2.97;;;20.90;80.70;;;;;;10482262;28;20032;-70
2023/06/06 18:57:27;;;;;;;5.32;2.78;;;20.90;80.70;;;;;;10478907;28;20040;-70
2023/06/06 19:02:28;;;;;;;8.10;3.03;;;20.90;80.70;;;;;;10475732;28;20396;-70
2023/06/06 19:07:28;;;;;;;5.47;3.65;;;20.80;80.70;;;;;;10481116;28;20051;-70
2023/06/06 19:12:29;;;;;;;4.65;2.83;;;20.70;80.70;;;;;;10479959;28;20024;-69
2023/06/06 19:17:30;;;;;;;7.05;3.13;;;20.70;80.90;;;;;;10485473;28;20112;-69
2023/06/06 19:22:37;;;;;;;4.93;2.90;;;20.60;80.70;;;;;;10487338;28;20032;-68
2023/06/06 19:27:38;;;;;;;4.43;2.95;;;20.60;80.60;;;;;;10485117;28;20036;-69
2023/06/06 19:32:38;;;;;;;4.93;2.78;;;20.50;80.60;;;;;;10484032;28;20048;-69
2023/06/06 19:37:39;;;;;;;7.07;2.80;;;20.50;80.70;;;;;;10476655;28;20610;-70
2023/06/06 19:42:40;;;;;;;5.80;3.22;;;20.40;80.70;;;;;;10473195;28;20033;-70
2023/06/06 19:47:44;;;;;;;4.60;2.80;;;20.40;80.70;;;;;;10471617;28;20029;-70
2023/06/06 19:52:44;;;;;;;4.95;2.80;;;20.30;80.60;;;;;;10478806;28;20019;-70
2023/06/06 19:57:45;;;;;;;5.82;2.97;;;20.30;80.70;;;;;;10480871;28;20012;-70
2023/06/06 20:02:46;;;;;;;5.95;3.00;;;20.20;80.60;;;;;;10486354;28;20369;-71
2023/06/06 20:07:46;;;;;;;6.05;2.92;;;20.10;80.60;;;;;;10469768;28;20051;-70
2023/06/06 20:12:47;;;;;;;4.22;2.55;;;20.10;80.60;;;;;;10481760;28;20511;-70
2023/06/06 20:17:48;;;;;;;5.63;2.90;;;20.00;80.50;;;;;;10482164;28;20596;-70
2023/06/06 20:22:48;;;;;;;5.13;3.00;;;20.00;80.50;;;;;;10480756;28;20012;-70
2023/06/06 20:27:51;;;;;;;6.20;3.13;;;19.90;80.50;;;;;;10476264;28;20025;-70
2023/06/06 20:32:52;;;;;;;4.43;2.80;;;19.90;80.50;;;;;;10487142;28;20052;-70
2023/06/06 20:37:52;;;;;;;4.90;2.63;;;19.80;80.50;;;;;;10482486;28;20107;-70
2023/06/06 20:42:53;;;;;;;7.07;3.15;;;19.80;80.40;;;;;;10482395;28;20017;-70
2023/06/06 20:47:54;;;;;;;9.55;4.28;;;19.70;80.40;;;;;;10475879;28;20602;-70
2023/06/06 20:52:54;;;;;;;5.45;3.25;;;19.70;80.40;;;;;;10481383;28;20016;-70
2023/06/06 20:57:55;;;;;;;5.35;2.83;;;19.60;80.30;;;;;;10478292;28;20027;-71
2023/06/06 21:02:56;;;;;;;7.40;3.50;;;19.50;80.10;;;;;;10483603;28;20551;-70
2023/06/06 21:07:56;;;;;;;4.78;2.92;;;19.50;80.10;;;;;;10475578;28;20350;-71
2023/06/06 21:12:57;;;;;;;7.90;2.70;;;19.40;80.00;;;;;;10471625;28;20032;-71
2023/06/06 21:18:02;;;;;;;6.30;3.00;;;19.40;80.00;;;;;;10469262;28;20052;-70
2023/06/06 21:23:02;;;;;;;4.88;3.17;;;19.40;80.00;;;;;;10481570;28;20586;-69
2023/06/06 21:28:03;;;;;;;4.68;2.85;;;19.40;80.00;;;;;;10482114;28;20111;-70
2023/06/06 21:33:04;;;;;;;6.70;2.95;;;19.30;79.90;;;;;;10486979;28;20438;-70
2023/06/06 21:38:05;;;;;;;4.57;2.70;;;19.20;79.90;;;;;;10481609;28;20111;-70
2023/06/06 21:43:05;;;;;;;6.03;2.90;;;19.20;79.90;;;;;;10489259;28;20063;-70
2023/06/06 21:48:06;;;;;;;6.10;2.92;;;19.20;79.90;;;;;;10471849;28;20032;-70
2023/06/06 21:53:07;;;;;;;4.55;2.78;;;19.00;79.70;;;;;;10484495;28;20024;-70
2023/06/06 21:58:07;;;;;;;5.90;3.00;;;19.00;79.70;;;;;;10477891;28;20032;-70
2023/06/06 22:03:08;;;;;;;7.57;3.40;;;19.00;79.70;;;;;;10484323;28;20047;-70
2023/06/06 22:08:08;;;;;;;5.47;3.30;;;18.90;79.60;;;;;;10476936;28;20503;-70
2023/06/06 22:13:09;;;;;;;5.63;2.80;;;19.00;79.60;;;;;;10482804;28;20108;-71
2023/06/06 22:18:10;;;;;;;5.50;3.00;;;18.70;79.50;;;;;;10480671;28;20078;-71
2023/06/06 22:23:12;;;;;;;6.97;3.13;;;18.80;79.60;;;;;;10482553;28;20055;-70
2023/06/06 22:28:12;;;;;;;6.43;2.97;;;18.70;79.50;;;;;;10489364;28;20443;-70
2023/06/06 22:33:13;;;;;;;3.63;2.50;;;18.70;79.50;;;;;;10478588;28;20016;-70
2023/06/06 22:38:14;;;;;;;4.38;2.72;;;18.60;79.50;;;;;;10476095;28;20021;-70
2023/06/06 22:43:14;;;;;;;5.30;2.95;;;18.60;79.50;;;;;;10490208;28;20032;-70
2023/06/06 22:48:15;;;;;;;3.45;2.65;;;18.50;79.50;;;;;;10490343;28;20036;-70
2023/06/06 22:53:17;;;;;;;5.78;2.85;;;18.50;79.50;;;;;;10485514;28;20035;-70
2023/06/06 22:58:17;;;;;;;5.90;3.03;;;18.50;79.60;;;;;;10485095;28;20427;-70
2023/06/06 23:03:18;;;;;;;6.93;3.08;;;18.40;79.50;;;;;;10474277;28;20031;-70
2023/06/06 23:08:18;;;;;;;6.32;2.55;;;18.40;79.50;;;;;;10481709;28;20024;-70
2023/06/06 23:13:19;;;;;;;6.47;2.92;;;18.30;79.50;;;;;;10486924;28;20033;-71
2023/06/06 23:18:20;;;;;;;4.93;2.80;;;18.30;79.50;;;;;;10475328;28;20052;-70
2023/06/06 23:23:20;;;;;;;6.60;3.10;;;18.20;79.50;;;;;;10472879;28;20138;-70
2023/06/06 23:28:21;;;;;;;6.90;3.00;;;18.20;79.50;;;;;;10479924;28;20097;-70
2023/06/06 23:33:23;;;;;;;6.63;3.40;;;18.20;79.50;;;;;;10483378;28;20480;-70
2023/06/06 23:38:25;;;;;;;5.35;2.63;;;18.10;79.40;;;;;;10466567;28;20021;-70
2023/06/06 23:43:25;;;;;;;6.13;2.75;;;18.10;79.40;;;;;;10481887;28;20085;-70
2023/06/06 23:48:26;;;;;;;5.07;2.70;;;18.10;79.40;;;;;;10485735;28;20365;-71
2023/06/06 23:53:26;;;;;;;6.22;2.75;;;18.00;79.40;;;;;;10479103;28;20440;-70
2023/06/06 23:58:27;;;;;;;4.47;2.58;;;18.00;79.40;;;;;;10484288;28;20024;-70
